sensor_id;sensor_type;location;lat;lon;timestamp;P1;durP1;ratioP1;P2;durP2;ratioP2
31692;SDS011;37436;53.230;6.614;2022-09-09T00:06:27;24.52;;;10.32;;
31692;SDS011;37436;53.230;6.614;2022-09-09T00:09:15;24.30;;;12.68;;
31692;SDS011;37436;53.230;6.614;2022-09-09T00:16:43;20.77;;;11.83;;
31692;SDS011;37436;53.230;6.614;2022-09-09T00:22:05;29.30;;;13.88;;
31692;SDS011;37436;53.230;6.614;2022-09-09T00:27:04;27.48;;;15.25;;
31692;SDS011;37436;53.230;6.614;2022-09-09T00:29:45;34.92;;;15.02;;
31692;SDS011;37436;53.230;6.614;2022-09-09T00:32:15;30.08;;;14.32;;
31692;SDS011;37436;53.230;6.614;2022-09-09T00:34:56;34.35;;;14.75;;
31692;SDS011;37436;53.230;6.614;2022-09-09T00:37:22;27.30;;;13.90;;
31692;SDS011;37436;53.230;6.614;2022-09-09T00:39:51;33.13;;;14.73;;
31692;SDS011;37436;53.230;6.614;2022-09-09T00:47:44;23.75;;;11.18;;
31692;SDS011;37436;53.230;6.614;2022-09-09T00:52:44;31.25;;;12.57;;
31692;SDS011;37436;53.230;6.614;2022-09-09T00:55:21;23.73;;;11.75;;
31692;SDS011;37436;53.230;6.614;2022-09-09T00:57:51;27.27;;;11.15;;
31692;SDS011;37436;53.230;6.614;2022-09-09T01:00:22;23.15;;;11.30;;
31692;SDS011;37436;53.230;6.614;2022-09-09T01:07:48;21.10;;;10.57;;
31692;SDS011;37436;53.230;6.614;2022-09-09T01:10:58;19.88;;;9.73;;
31692;SDS011;37436;53.230;6.614;2022-09-09T01:13:22;24.65;;;9.98;;
31692;SDS011;37436;53.230;6.614;2022-09-09T01:15:48;21.30;;;10.25;;
31692;SDS011;37436;53.230;6.614;2022-09-09T01:18:25;23.90;;;9.57;;
31692;SDS011;37436;53.230;6.614;2022-09-09T01:21:01;25.45;;;9.88;;
31692;SDS011;37436;53.230;6.614;2022-09-09T01:29:06;17.20;;;8.68;;
31692;SDS011;37436;53.230;6.614;2022-09-09T01:31:34;20.20;;;9.85;;
31692;SDS011;37436;53.230;6.614;2022-09-09T01:34:02;19.58;;;10.50;;
31692;SDS011;37436;53.230;6.614;2022-09-09T01:36:36;27.25;;;9.52;;
31692;SDS011;37436;53.230;6.614;2022-09-09T01:39:04;21.25;;;9.38;;
31692;SDS011;37436;53.230;6.614;2022-09-09T01:41:30;27.75;;;11.70;;
31692;SDS011;37436;53.230;6.614;2022-09-09T01:43:56;24.08;;;11.32;;
31692;SDS011;37436;53.230;6.614;2022-09-09T01:46:23;35.70;;;11.73;;
31692;SDS011;37436;53.230;6.614;2022-09-09T01:48:52;25.45;;;11.55;;
31692;SDS011;37436;53.230;6.614;2022-09-09T01:51:18;24.30;;;12.18;;
31692;SDS011;37436;53.230;6.614;2022-09-09T01:53:45;23.73;;;11.05;;
31692;SDS011;37436;53.230;6.614;2022-09-09T01:58:53;17.77;;;10.23;;
31692;SDS011;37436;53.230;6.614;2022-09-09T02:01:35;24.95;;;9.95;;
31692;SDS011;37436;53.230;6.614;2022-09-09T02:04:09;19.15;;;9.85;;
31692;SDS011;37436;53.230;6.614;2022-09-09T02:06:39;24.83;;;10.65;;
31692;SDS011;37436;53.230;6.614;2022-09-09T02:09:06;29.40;;;11.32;;
31692;SDS011;37436;53.230;6.614;2022-09-09T02:11:39;29.27;;;10.18;;
31692;SDS011;37436;53.230;6.614;2022-09-09T02:14:16;27.88;;;11.10;;
31692;SDS011;37436;53.230;6.614;2022-09-09T02:16:44;26.38;;;11.70;;
31692;SDS011;37436;53.230;6.614;2022-09-09T02:21:42;28.23;;;10.45;;
31692;SDS011;37436;53.230;6.614;2022-09-09T02:24:10;24.35;;;11.13;;
31692;SDS011;37436;53.230;6.614;2022-09-09T02:26:39;40.60;;;12.25;;
31692;SDS011;37436;53.230;6.614;2022-09-09T02:29:08;31.48;;;14.65;;
31692;SDS011;37436;53.230;6.614;2022-09-09T02:31:35;29.98;;;13.40;;
31692;SDS011;37436;53.230;6.614;2022-09-09T02:34:02;33.70;;;13.15;;
31692;SDS011;37436;53.230;6.614;2022-09-09T02:36:33;29.05;;;13.27;;
31692;SDS011;37436;53.230;6.614;2022-09-09T02:39:08;41.92;;;15.88;;
31692;SDS011;37436;53.230;6.614;2022-09-09T02:41:39;35.97;;;12.93;;
31692;SDS011;37436;53.230;6.614;2022-09-09T02:44:09;34.05;;;13.18;;
31692;SDS011;37436;53.230;6.614;2022-09-09T02:52:06;37.63;;;11.88;;
31692;SDS011;37436;53.230;6.614;2022-09-09T02:54:33;30.38;;;11.70;;
31692;SDS011;37436;53.230;6.614;2022-09-09T02:57:11;32.88;;;12.05;;
31692;SDS011;37436;53.230;6.614;2022-09-09T02:59:38;40.08;;;12.30;;
31692;SDS011;37436;53.230;6.614;2022-09-09T03:02:04;26.98;;;10.32;;
31692;SDS011;37436;53.230;6.614;2022-09-09T03:04:30;30.83;;;12.05;;
31692;SDS011;37436;53.230;6.614;2022-09-09T03:06:57;29.58;;;12.05;;
31692;SDS011;37436;53.230;6.614;2022-09-09T03:09:23;26.75;;;11.82;;
31692;SDS011;37436;53.230;6.614;2022-09-09T03:11:51;23.70;;;10.93;;
31692;SDS011;37436;53.230;6.614;2022-09-09T03:14:23;22.52;;;10.25;;
31692;SDS011;37436;53.230;6.614;2022-09-09T03:16:53;27.60;;;10.80;;
31692;SDS011;37436;53.230;6.614;2022-09-09T03:19:20;29.33;;;9.93;;
31692;SDS011;37436;53.230;6.614;2022-09-09T03:21:46;20.45;;;11.23;;
31692;SDS011;37436;53.230;6.614;2022-09-09T03:24:13;26.10;;;10.63;;
31692;SDS011;37436;53.230;6.614;2022-09-09T03:26:54;22.00;;;10.10;;
31692;SDS011;37436;53.230;6.614;2022-09-09T03:29:20;26.55;;;9.63;;
31692;SDS011;37436;53.230;6.614;2022-09-09T03:31:46;26.95;;;9.80;;
31692;SDS011;37436;53.230;6.614;2022-09-09T03:34:13;28.77;;;10.43;;
31692;SDS011;37436;53.230;6.614;2022-09-09T03:36:39;17.42;;;9.18;;
31692;SDS011;37436;53.230;6.614;2022-09-09T03:39:06;14.23;;;6.85;;
31692;SDS011;37436;53.230;6.614;2022-09-09T03:41:32;16.33;;;6.00;;
31692;SDS011;37436;53.230;6.614;2022-09-09T03:43:59;12.95;;;6.18;;
31692;SDS011;37436;53.230;6.614;2022-09-09T03:46:25;16.40;;;6.07;;
31692;SDS011;37436;53.230;6.614;2022-09-09T03:48:52;13.32;;;6.50;;
31692;SDS011;37436;53.230;6.614;2022-09-09T03:51:18;22.33;;;7.30;;
31692;SDS011;37436;53.230;6.614;2022-09-09T03:53:44;21.40;;;10.30;;
31692;SDS011;37436;53.230;6.614;2022-09-09T03:56:11;18.70;;;9.38;;
31692;SDS011;37436;53.230;6.614;2022-09-09T03:58:40;24.40;;;7.40;;
31692;SDS011;37436;53.230;6.614;2022-09-09T04:01:08;16.73;;;6.78;;
31692;SDS011;37436;53.230;6.614;2022-09-09T04:03:35;17.98;;;6.13;;
31692;SDS011;37436;53.230;6.614;2022-09-09T04:06:04;11.40;;;5.53;;
31692;SDS011;37436;53.230;6.614;2022-09-09T04:08:32;15.40;;;5.25;;
31692;SDS011;37436;53.230;6.614;2022-09-09T04:10:58;15.50;;;5.43;;
31692;SDS011;37436;53.230;6.614;2022-09-09T04:13:25;14.65;;;5.07;;
31692;SDS011;37436;53.230;6.614;2022-09-09T04:15:55;11.43;;;4.28;;
31692;SDS011;37436;53.230;6.614;2022-09-09T04:18:22;15.65;;;3.97;;
31692;SDS011;37436;53.230;6.614;2022-09-09T04:20:49;10.02;;;3.60;;
31692;SDS011;37436;53.230;6.614;2022-09-09T04:23:15;10.80;;;3.50;;
31692;SDS011;37436;53.230;6.614;2022-09-09T04:25:45;16.75;;;4.05;;
31692;SDS011;37436;53.230;6.614;2022-09-09T04:28:12;7.68;;;3.45;;
31692;SDS011;37436;53.230;6.614;2022-09-09T04:30:39;11.20;;;3.72;;
31692;SDS011;37436;53.230;6.614;2022-09-09T04:33:05;11.95;;;3.80;;
31692;SDS011;37436;53.230;6.614;2022-09-09T04:35:32;15.13;;;3.45;;
31692;SDS011;37436;53.230;6.614;2022-09-09T04:37:58;13.30;;;3.78;;
31692;SDS011;37436;53.230;6.614;2022-09-09T04:40:24;12.07;;;4.07;;
31692;SDS011;37436;53.230;6.614;2022-09-09T04:42:50;21.17;;;4.00;;
31692;SDS011;37436;53.230;6.614;2022-09-09T04:45:21;13.40;;;3.70;;
31692;SDS011;37436;53.230;6.614;2022-09-09T04:47:47;11.98;;;4.20;;
31692;SDS011;37436;53.230;6.614;2022-09-09T04:50:14;15.85;;;5.10;;
31692;SDS011;37436;53.230;6.614;2022-09-09T04:52:41;15.02;;;5.57;;
31692;SDS011;37436;53.230;6.614;2022-09-09T04:55:07;12.57;;;5.05;;
31692;SDS011;37436;53.230;6.614;2022-09-09T04:57:34;12.05;;;4.20;;
31692;SDS011;37436;53.230;6.614;2022-09-09T05:00:00;22.52;;;5.20;;
31692;SDS011;37436;53.230;6.614;2022-09-09T05:02:26;18.38;;;4.95;;
31692;SDS011;37436;53.230;6.614;2022-09-09T05:04:52;18.65;;;5.07;;
31692;SDS011;37436;53.230;6.614;2022-09-09T05:07:19;15.95;;;5.07;;
31692;SDS011;37436;53.230;6.614;2022-09-09T05:09:45;18.63;;;4.90;;
31692;SDS011;37436;53.230;6.614;2022-09-09T05:12:13;15.85;;;5.53;;
31692;SDS011;37436;53.230;6.614;2022-09-09T05:14:39;13.60;;;5.60;;
31692;SDS011;37436;53.230;6.614;2022-09-09T05:17:05;12.13;;;5.25;;
31692;SDS011;37436;53.230;6.614;2022-09-09T05:19:31;20.38;;;6.82;;
31692;SDS011;37436;53.230;6.614;2022-09-09T05:21:57;12.45;;;6.20;;
31692;SDS011;37436;53.230;6.614;2022-09-09T05:24:23;19.02;;;6.95;;
31692;SDS011;37436;53.230;6.614;2022-09-09T05:26:49;23.13;;;7.10;;
31692;SDS011;37436;53.230;6.614;2022-09-09T05:29:15;17.95;;;7.30;;
31692;SDS011;37436;53.230;6.614;2022-09-09T05:31:43;17.83;;;8.25;;
31692;SDS011;37436;53.230;6.614;2022-09-09T05:34:10;26.27;;;8.23;;
31692;SDS011;37436;53.230;6.614;2022-09-09T05:36:36;20.27;;;8.75;;
31692;SDS011;37436;53.230;6.614;2022-09-09T05:39:02;16.75;;;8.13;;
31692;SDS011;37436;53.230;6.614;2022-09-09T05:41:28;19.50;;;8.55;;
31692;SDS011;37436;53.230;6.614;2022-09-09T05:43:55;20.98;;;8.32;;
31692;SDS011;37436;53.230;6.614;2022-09-09T05:46:27;26.05;;;8.27;;
31692;SDS011;37436;53.230;6.614;2022-09-09T05:48:53;22.13;;;8.70;;
31692;SDS011;37436;53.230;6.614;2022-09-09T05:51:23;22.30;;;10.00;;
31692;SDS011;37436;53.230;6.614;2022-09-09T05:53:50;25.20;;;9.57;;
31692;SDS011;37436;53.230;6.614;2022-09-09T05:56:26;30.73;;;10.05;;
31692;SDS011;37436;53.230;6.614;2022-09-09T05:58:53;22.27;;;10.27;;
31692;SDS011;37436;53.230;6.614;2022-09-09T06:01:20;26.48;;;10.30;;
31692;SDS011;37436;53.230;6.614;2022-09-09T06:03:48;27.05;;;10.43;;
31692;SDS011;37436;53.230;6.614;2022-09-09T06:06:19;29.45;;;10.60;;
31692;SDS011;37436;53.230;6.614;2022-09-09T06:08:52;25.77;;;10.65;;
31692;SDS011;37436;53.230;6.614;2022-09-09T06:11:20;27.50;;;11.73;;
31692;SDS011;37436;53.230;6.614;2022-09-09T06:13:47;22.58;;;8.50;;
31692;SDS011;37436;53.230;6.614;2022-09-09T06:16:17;26.50;;;10.70;;
31692;SDS011;37436;53.230;6.614;2022-09-09T06:18:43;21.88;;;8.93;;
31692;SDS011;37436;53.230;6.614;2022-09-09T06:21:15;22.92;;;10.13;;
31692;SDS011;37436;53.230;6.614;2022-09-09T06:23:41;20.75;;;10.38;;
31692;SDS011;37436;53.230;6.614;2022-09-09T06:26:18;23.85;;;9.82;;
31692;SDS011;37436;53.230;6.614;2022-09-09T06:28:48;21.38;;;11.07;;
31692;SDS011;37436;53.230;6.614;2022-09-09T06:31:16;23.90;;;10.73;;
31692;SDS011;37436;53.230;6.614;2022-09-09T06:33:43;22.70;;;9.57;;
31692;SDS011;37436;53.230;6.614;2022-09-09T06:36:19;25.42;;;11.05;;
31692;SDS011;37436;53.230;6.614;2022-09-09T06:38:46;34.65;;;10.38;;
31692;SDS011;37436;53.230;6.614;2022-09-09T06:41:13;22.35;;;9.63;;
31692;SDS011;37436;53.230;6.614;2022-09-09T06:43:40;19.50;;;8.80;;
31692;SDS011;37436;53.230;6.614;2022-09-09T06:46:08;23.10;;;10.13;;
31692;SDS011;37436;53.230;6.614;2022-09-09T06:48:35;17.48;;;8.05;;
31692;SDS011;37436;53.230;6.614;2022-09-09T06:53:27;16.55;;;8.43;;
31692;SDS011;37436;53.230;6.614;2022-09-09T06:55:54;15.82;;;8.00;;
31692;SDS011;37436;53.230;6.614;2022-09-09T06:58:20;13.23;;;6.47;;
31692;SDS011;37436;53.230;6.614;2022-09-09T07:00:49;17.42;;;7.63;;
31692;SDS011;37436;53.230;6.614;2022-09-09T07:03:15;21.23;;;8.70;;
31692;SDS011;37436;53.230;6.614;2022-09-09T07:05:42;19.50;;;8.45;;
31692;SDS011;37436;53.230;6.614;2022-09-09T07:08:09;15.60;;;7.57;;
31692;SDS011;37436;53.230;6.614;2022-09-09T07:10:36;23.73;;;8.40;;
31692;SDS011;37436;53.230;6.614;2022-09-09T07:13:02;17.15;;;8.85;;
31692;SDS011;37436;53.230;6.614;2022-09-09T07:15:29;23.02;;;8.43;;
31692;SDS011;37436;53.230;6.614;2022-09-09T07:18:00;17.65;;;8.32;;
31692;SDS011;37436;53.230;6.614;2022-09-09T07:20:27;14.60;;;7.45;;
31692;SDS011;37436;53.230;6.614;2022-09-09T07:22:54;16.65;;;7.25;;
31692;SDS011;37436;53.230;6.614;2022-09-09T07:25:34;17.92;;;6.95;;
31692;SDS011;37436;53.230;6.614;2022-09-09T07:28:00;19.83;;;8.35;;
31692;SDS011;37436;53.230;6.614;2022-09-09T07:30:27;20.55;;;8.48;;
31692;SDS011;37436;53.230;6.614;2022-09-09T07:32:53;29.02;;;8.32;;
31692;SDS011;37436;53.230;6.614;2022-09-09T07:38:18;12.37;;;6.27;;
31692;SDS011;37436;53.230;6.614;2022-09-09T07:40:45;17.77;;;7.88;;
31692;SDS011;37436;53.230;6.614;2022-09-09T07:43:12;11.77;;;6.60;;
31692;SDS011;37436;53.230;6.614;2022-09-09T07:45:38;11.20;;;5.88;;
31692;SDS011;37436;53.230;6.614;2022-09-09T07:48:17;14.82;;;7.55;;
31692;SDS011;37436;53.230;6.614;2022-09-09T07:50:44;13.65;;;6.82;;
31692;SDS011;37436;53.230;6.614;2022-09-09T07:53:10;14.85;;;8.20;;
31692;SDS011;37436;53.230;6.614;2022-09-09T07:55:36;11.88;;;6.25;;
31692;SDS011;37436;53.230;6.614;2022-09-09T07:58:02;12.88;;;6.80;;
31692;SDS011;37436;53.230;6.614;2022-09-09T08:00:28;13.65;;;6.13;;
31692;SDS011;37436;53.230;6.614;2022-09-09T08:02:54;13.27;;;6.40;;
31692;SDS011;37436;53.230;6.614;2022-09-09T08:05:20;15.20;;;5.97;;
31692;SDS011;37436;53.230;6.614;2022-09-09T08:07:51;20.05;;;7.25;;
31692;SDS011;37436;53.230;6.614;2022-09-09T08:10:17;16.38;;;5.53;;
31692;SDS011;37436;53.230;6.614;2022-09-09T08:12:43;10.82;;;6.20;;
31692;SDS011;37436;53.230;6.614;2022-09-09T08:15:13;11.15;;;5.55;;
31692;SDS011;37436;53.230;6.614;2022-09-09T08:31:15;9.60;;;5.43;;
31692;SDS011;37436;53.230;6.614;2022-09-09T08:33:48;8.13;;;4.80;;
31692;SDS011;37436;53.230;6.614;2022-09-09T08:36:16;9.63;;;5.07;;
31692;SDS011;37436;53.230;6.614;2022-09-09T08:38:42;10.73;;;4.85;;
31692;SDS011;37436;53.230;6.614;2022-09-09T08:43:50;14.75;;;4.97;;
31692;SDS011;37436;53.230;6.614;2022-09-09T08:46:26;10.68;;;4.78;;
31692;SDS011;37436;53.230;6.614;2022-09-09T08:49:06;6.35;;;4.18;;
31692;SDS011;37436;53.230;6.614;2022-09-09T08:51:35;7.53;;;4.85;;
31692;SDS011;37436;53.230;6.614;2022-09-09T08:54:02;7.60;;;4.63;;
31692;SDS011;37436;53.230;6.614;2022-09-09T08:56:30;8.82;;;4.07;;
31692;SDS011;37436;53.230;6.614;2022-09-09T08:58:58;10.80;;;4.35;;
31692;SDS011;37436;53.230;6.614;2022-09-09T09:06:48;5.60;;;3.45;;
31692;SDS011;37436;53.230;6.614;2022-09-09T09:12:06;7.18;;;3.97;;
31692;SDS011;37436;53.230;6.614;2022-09-09T09:14:36;8.38;;;3.80;;
31692;SDS011;37436;53.230;6.614;2022-09-09T09:17:04;7.20;;;3.33;;
31692;SDS011;37436;53.230;6.614;2022-09-09T09:19:32;10.27;;;4.28;;
31692;SDS011;37436;53.230;6.614;2022-09-09T09:22:01;12.43;;;4.15;;
31692;SDS011;37436;53.230;6.614;2022-09-09T09:27:33;12.05;;;3.85;;
31692;SDS011;37436;53.230;6.614;2022-09-09T09:30:05;6.03;;;3.33;;
31692;SDS011;37436;53.230;6.614;2022-09-09T09:32:39;12.85;;;3.95;;
31692;SDS011;37436;53.230;6.614;2022-09-09T09:35:11;14.38;;;4.00;;
31692;SDS011;37436;53.230;6.614;2022-09-09T09:37:40;13.88;;;4.43;;
31692;SDS011;37436;53.230;6.614;2022-09-09T09:40:13;8.50;;;4.32;;
31692;SDS011;37436;53.230;6.614;2022-09-09T09:45:25;7.85;;;3.70;;
31692;SDS011;37436;53.230;6.614;2022-09-09T09:47:59;8.73;;;3.40;;
31692;SDS011;37436;53.230;6.614;2022-09-09T09:50:35;9.38;;;3.50;;
31692;SDS011;37436;53.230;6.614;2022-09-09T09:53:26;8.43;;;3.15;;
31692;SDS011;37436;53.230;6.614;2022-09-09T09:58:23;10.88;;;2.88;;
31692;SDS011;37436;53.230;6.614;2022-09-09T10:00:52;9.43;;;2.97;;
31692;SDS011;37436;53.230;6.614;2022-09-09T10:03:24;6.88;;;2.83;;
31692;SDS011;37436;53.230;6.614;2022-09-09T10:06:09;11.00;;;2.97;;
31692;SDS011;37436;53.230;6.614;2022-09-09T10:08:44;9.52;;;3.22;;
31692;SDS011;37436;53.230;6.614;2022-09-09T10:56:18;6.00;;;2.30;;
31692;SDS011;37436;53.230;6.614;2022-09-09T10:58:51;7.63;;;2.38;;
31692;SDS011;37436;53.230;6.614;2022-09-09T11:01:22;9.52;;;2.25;;
31692;SDS011;37436;53.230;6.614;2022-09-09T11:04:25;18.35;;;3.20;;
31692;SDS011;37436;53.230;6.614;2022-09-09T11:06:45;7.50;;;2.28;;
31692;SDS011;37436;53.230;6.614;2022-09-09T11:09:15;16.25;;;2.60;;
31692;SDS011;37436;53.230;6.614;2022-09-09T11:11:55;7.22;;;2.38;;
31692;SDS011;37436;53.230;6.614;2022-09-09T11:16:56;7.68;;;2.00;;
31692;SDS011;37436;53.230;6.614;2022-09-09T11:19:37;11.80;;;2.42;;
31692;SDS011;37436;53.230;6.614;2022-09-09T11:22:12;9.05;;;1.85;;
31692;SDS011;37436;53.230;6.614;2022-09-09T11:24:45;9.95;;;2.35;;
31692;SDS011;37436;53.230;6.614;2022-09-09T11:27:15;9.50;;;1.52;;
31692;SDS011;37436;53.230;6.614;2022-09-09T11:39:38;7.10;;;2.22;;
31692;SDS011;37436;53.230;6.614;2022-09-09T11:44:42;11.60;;;2.15;;
31692;SDS011;37436;53.230;6.614;2022-09-09T11:47:26;6.88;;;1.88;;
31692;SDS011;37436;53.230;6.614;2022-09-09T11:50:10;4.05;;;1.50;;
31692;SDS011;37436;53.230;6.614;2022-09-09T11:52:39;5.15;;;2.03;;
31692;SDS011;37436;53.230;6.614;2022-09-09T11:55:08;5.50;;;2.10;;
31692;SDS011;37436;53.230;6.614;2022-09-09T11:57:36;4.68;;;1.73;;
31692;SDS011;37436;53.230;6.614;2022-09-09T12:00:03;9.60;;;2.42;;
31692;SDS011;37436;53.230;6.614;2022-09-09T12:02:29;9.10;;;3.22;;
31692;SDS011;37436;53.230;6.614;2022-09-09T12:05:02;8.75;;;2.53;;
31692;SDS011;37436;53.230;6.614;2022-09-09T12:07:40;7.63;;;1.58;;
31692;SDS011;37436;53.230;6.614;2022-09-09T12:10:26;8.85;;;2.00;;
31692;SDS011;37436;53.230;6.614;2022-09-09T12:12:53;8.25;;;1.95;;
31692;SDS011;37436;53.230;6.614;2022-09-09T12:15:20;10.90;;;1.88;;
31692;SDS011;37436;53.230;6.614;2022-09-09T12:17:48;6.13;;;1.77;;
31692;SDS011;37436;53.230;6.614;2022-09-09T12:20:20;4.28;;;1.65;;
31692;SDS011;37436;53.230;6.614;2022-09-09T12:23:48;9.13;;;2.10;;
31692;SDS011;37436;53.230;6.614;2022-09-09T12:28:39;5.78;;;2.63;;
31692;SDS011;37436;53.230;6.614;2022-09-09T12:33:34;5.45;;;1.48;;
31692;SDS011;37436;53.230;6.614;2022-09-09T12:36:01;7.10;;;1.98;;
31692;SDS011;37436;53.230;6.614;2022-09-09T12:38:36;8.07;;;1.50;;
31692;SDS011;37436;53.230;6.614;2022-09-09T12:41:02;5.15;;;1.38;;
31692;SDS011;37436;53.230;6.614;2022-09-09T12:43:29;5.32;;;1.85;;
31692;SDS011;37436;53.230;6.614;2022-09-09T12:45:59;4.80;;;1.30;;
31692;SDS011;37436;53.230;6.614;2022-09-09T12:48:38;9.25;;;1.75;;
31692;SDS011;37436;53.230;6.614;2022-09-09T12:54:12;8.52;;;1.80;;
31692;SDS011;37436;53.230;6.614;2022-09-09T12:56:40;9.50;;;2.83;;
31692;SDS011;37436;53.230;6.614;2022-09-09T12:59:18;7.72;;;2.15;;
31692;SDS011;37436;53.230;6.614;2022-09-09T13:01:54;7.20;;;2.00;;
31692;SDS011;37436;53.230;6.614;2022-09-09T13:04:20;11.02;;;2.00;;
31692;SDS011;37436;53.230;6.614;2022-09-09T13:06:47;4.85;;;1.60;;
31692;SDS011;37436;53.230;6.614;2022-09-09T13:09:14;9.93;;;1.70;;
31692;SDS011;37436;53.230;6.614;2022-09-09T13:11:48;9.35;;;2.13;;
31692;SDS011;37436;53.230;6.614;2022-09-09T13:14:16;11.80;;;1.83;;
31692;SDS011;37436;53.230;6.614;2022-09-09T13:16:53;5.32;;;2.05;;
31692;SDS011;37436;53.230;6.614;2022-09-09T13:19:20;8.73;;;1.83;;
31692;SDS011;37436;53.230;6.614;2022-09-09T13:21:46;10.02;;;1.55;;
31692;SDS011;37436;53.230;6.614;2022-09-09T13:24:29;5.93;;;1.65;;
31692;SDS011;37436;53.230;6.614;2022-09-09T13:26:57;5.32;;;1.42;;
31692;SDS011;37436;53.230;6.614;2022-09-09T13:29:23;7.70;;;2.20;;
31692;SDS011;37436;53.230;6.614;2022-09-09T13:31:50;3.33;;;1.30;;
31692;SDS011;37436;53.230;6.614;2022-09-09T13:34:32;5.13;;;1.58;;
31692;SDS011;37436;53.230;6.614;2022-09-09T13:37:00;3.85;;;1.45;;
31692;SDS011;37436;53.230;6.614;2022-09-09T13:39:27;8.52;;;2.38;;
31692;SDS011;37436;53.230;6.614;2022-09-09T13:41:53;6.93;;;1.42;;
31692;SDS011;37436;53.230;6.614;2022-09-09T13:44:24;6.38;;;1.70;;
31692;SDS011;37436;53.230;6.614;2022-09-09T13:47:04;8.23;;;1.45;;
31692;SDS011;37436;53.230;6.614;2022-09-09T13:49:31;2.20;;;1.15;;
31692;SDS011;37436;53.230;6.614;2022-09-09T13:52:08;14.18;;;1.88;;
31692;SDS011;37436;53.230;6.614;2022-09-09T13:54:34;5.60;;;1.58;;
31692;SDS011;37436;53.230;6.614;2022-09-09T13:57:00;1.90;;;1.02;;
31692;SDS011;37436;53.230;6.614;2022-09-09T13:59:26;7.55;;;1.90;;
31692;SDS011;37436;53.230;6.614;2022-09-09T14:01:53;7.40;;;1.63;;
31692;SDS011;37436;53.230;6.614;2022-09-09T14:04:19;3.75;;;1.48;;
31692;SDS011;37436;53.230;6.614;2022-09-09T14:06:46;6.07;;;1.50;;
31692;SDS011;37436;53.230;6.614;2022-09-09T14:09:19;3.08;;;1.58;;
31692;SDS011;37436;53.230;6.614;2022-09-09T14:11:45;1.33;;;0.70;;
31692;SDS011;37436;53.230;6.614;2022-09-09T14:14:11;5.32;;;0.88;;
31692;SDS011;37436;53.230;6.614;2022-09-09T14:16:37;2.65;;;0.82;;
31692;SDS011;37436;53.230;6.614;2022-09-09T14:19:03;4.53;;;0.90;;
31692;SDS011;37436;53.230;6.614;2022-09-09T14:21:30;3.63;;;0.43;;
31692;SDS011;37436;53.230;6.614;2022-09-09T14:23:56;2.65;;;0.90;;
31692;SDS011;37436;53.230;6.614;2022-09-09T14:26:30;3.05;;;1.13;;
31692;SDS011;37436;53.230;6.614;2022-09-09T14:28:56;3.47;;;0.70;;
31692;SDS011;37436;53.230;6.614;2022-09-09T14:31:22;3.05;;;0.80;;
31692;SDS011;37436;53.230;6.614;2022-09-09T14:33:52;3.30;;;1.00;;
31692;SDS011;37436;53.230;6.614;2022-09-09T14:36:18;1.20;;;1.00;;
31692;SDS011;37436;53.230;6.614;2022-09-09T14:38:44;2.40;;;0.95;;
31692;SDS011;37436;53.230;6.614;2022-09-09T14:41:11;6.68;;;1.67;;
31692;SDS011;37436;53.230;6.614;2022-09-09T14:43:38;3.03;;;1.10;;
31692;SDS011;37436;53.230;6.614;2022-09-09T14:46:04;4.03;;;1.90;;
31692;SDS011;37436;53.230;6.614;2022-09-09T14:48:31;5.22;;;1.40;;
31692;SDS011;37436;53.230;6.614;2022-09-09T14:51:04;4.65;;;1.50;;
31692;SDS011;37436;53.230;6.614;2022-09-09T14:53:30;17.35;;;2.97;;
31692;SDS011;37436;53.230;6.614;2022-09-09T14:56:03;4.03;;;1.40;;
31692;SDS011;37436;53.230;6.614;2022-09-09T14:58:30;8.70;;;1.70;;
31692;SDS011;37436;53.230;6.614;2022-09-09T15:01:01;5.15;;;1.60;;
31692;SDS011;37436;53.230;6.614;2022-09-09T15:03:28;10.20;;;2.20;;
31692;SDS011;37436;53.230;6.614;2022-09-09T15:05:57;9.10;;;2.10;;
31692;SDS011;37436;53.230;6.614;2022-09-09T15:08:23;6.20;;;2.15;;
31692;SDS011;37436;53.230;6.614;2022-09-09T15:10:49;6.82;;;1.90;;
31692;SDS011;37436;53.230;6.614;2022-09-09T15:13:15;6.40;;;2.10;;
31692;SDS011;37436;53.230;6.614;2022-09-09T15:15:42;7.00;;;2.33;;
31692;SDS011;37436;53.230;6.614;2022-09-09T15:18:09;6.38;;;1.98;;
31692;SDS011;37436;53.230;6.614;2022-09-09T15:20:35;13.00;;;2.40;;
31692;SDS011;37436;53.230;6.614;2022-09-09T15:23:02;9.30;;;2.17;;
31692;SDS011;37436;53.230;6.614;2022-09-09T15:25:29;5.03;;;2.15;;
31692;SDS011;37436;53.230;6.614;2022-09-09T15:27:56;10.10;;;2.17;;
31692;SDS011;37436;53.230;6.614;2022-09-09T15:30:22;7.22;;;2.75;;
31692;SDS011;37436;53.230;6.614;2022-09-09T15:32:48;6.72;;;2.75;;
31692;SDS011;37436;53.230;6.614;2022-09-09T15:35:14;9.50;;;2.10;;
31692;SDS011;37436;53.230;6.614;2022-09-09T15:37:40;7.90;;;2.40;;
31692;SDS011;37436;53.230;6.614;2022-09-09T15:40:06;8.05;;;2.65;;
31692;SDS011;37436;53.230;6.614;2022-09-09T15:42:33;5.75;;;3.03;;
31692;SDS011;37436;53.230;6.614;2022-09-09T15:44:59;7.38;;;4.15;;
31692;SDS011;37436;53.230;6.614;2022-09-09T15:47:25;3.15;;;2.15;;
31692;SDS011;37436;53.230;6.614;2022-09-09T15:49:52;6.13;;;2.75;;
31692;SDS011;37436;53.230;6.614;2022-09-09T15:52:18;5.82;;;1.75;;
31692;SDS011;37436;53.230;6.614;2022-09-09T15:54:44;4.32;;;1.63;;
31692;SDS011;37436;53.230;6.614;2022-09-09T15:57:11;3.65;;;1.05;;
31692;SDS011;37436;53.230;6.614;2022-09-09T15:59:37;3.58;;;1.15;;
31692;SDS011;37436;53.230;6.614;2022-09-09T16:02:03;6.40;;;1.25;;
31692;SDS011;37436;53.230;6.614;2022-09-09T16:04:30;3.78;;;1.42;;
31692;SDS011;37436;53.230;6.614;2022-09-09T16:07:00;1.55;;;1.05;;
31692;SDS011;37436;53.230;6.614;2022-09-09T16:09:27;4.60;;;1.10;;
31692;SDS011;37436;53.230;6.614;2022-09-09T16:11:57;4.20;;;1.30;;
31692;SDS011;37436;53.230;6.614;2022-09-09T16:14:23;5.03;;;1.23;;
31692;SDS011;37436;53.230;6.614;2022-09-09T16:16:52;2.70;;;1.15;;
31692;SDS011;37436;53.230;6.614;2022-09-09T16:19:18;3.97;;;1.67;;
31692;SDS011;37436;53.230;6.614;2022-09-09T16:21:45;4.90;;;1.38;;
31692;SDS011;37436;53.230;6.614;2022-09-09T16:24:13;8.18;;;1.90;;
31692;SDS011;37436;53.230;6.614;2022-09-09T16:26:41;3.83;;;1.85;;
31692;SDS011;37436;53.230;6.614;2022-09-09T16:29:09;4.18;;;1.40;;
31692;SDS011;37436;53.230;6.614;2022-09-09T16:31:35;4.13;;;1.67;;
31692;SDS011;37436;53.230;6.614;2022-09-09T16:34:02;2.17;;;1.33;;
31692;SDS011;37436;53.230;6.614;2022-09-09T16:36:28;3.45;;;1.40;;
31692;SDS011;37436;53.230;6.614;2022-09-09T16:38:56;8.10;;;2.00;;
31692;SDS011;37436;53.230;6.614;2022-09-09T16:41:24;5.28;;;1.58;;
31692;SDS011;37436;53.230;6.614;2022-09-09T16:43:57;3.67;;;1.60;;
31692;SDS011;37436;53.230;6.614;2022-09-09T16:46:24;7.45;;;2.78;;
31692;SDS011;37436;53.230;6.614;2022-09-09T16:48:50;4.95;;;1.95;;
31692;SDS011;37436;53.230;6.614;2022-09-09T16:51:24;4.75;;;1.80;;
31692;SDS011;37436;53.230;6.614;2022-09-09T16:53:50;8.75;;;1.90;;
31692;SDS011;37436;53.230;6.614;2022-09-09T16:56:18;6.38;;;1.95;;
31692;SDS011;37436;53.230;6.614;2022-09-09T16:58:52;4.63;;;2.20;;
31692;SDS011;37436;53.230;6.614;2022-09-09T17:01:20;5.45;;;2.55;;
31692;SDS011;37436;53.230;6.614;2022-09-09T17:03:46;7.38;;;1.90;;
31692;SDS011;37436;53.230;6.614;2022-09-09T17:06:13;4.10;;;1.48;;
31692;SDS011;37436;53.230;6.614;2022-09-09T17:08:39;3.00;;;1.55;;
31692;SDS011;37436;53.230;6.614;2022-09-09T17:11:12;2.20;;;1.60;;
31692;SDS011;37436;53.230;6.614;2022-09-09T17:13:40;3.72;;;1.60;;
31692;SDS011;37436;53.230;6.614;2022-09-09T17:16:06;9.98;;;2.08;;
31692;SDS011;37436;53.230;6.614;2022-09-09T17:18:33;4.00;;;1.70;;
31692;SDS011;37436;53.230;6.614;2022-09-09T17:21:06;8.90;;;1.90;;